Time;durP1;ratioP1;P1;durP2;ratioP2;P2;SDS_P1;SDS_P2;PMS_P1;PMS_P2;Temp;Humidity;BMP_temperature;BMP_pressure;BME280_temperature;BME280_humidity;BME280_pressure;Samples;Min_cycle;Max_cycle;Signal;HPM_P1;HPM_P2
2021/05/12 00:02:00;;;;;;;0.97;0.87;;;;;;;;;;5076551;28;20428;-76
2021/05/12 00:04:26;;;;;;;0.80;0.70;;;;;;;;;;5075401;28;20412;-74
2021/05/12 00:06:52;;;;;;;1.40;1.17;;;;;;;;;;5078184;28;20370;-75
2021/05/12 00:09:18;;;;;;;5.23;1.30;;;;;;;;;;5074707;28;20401;-76
2021/05/12 00:11:44;;;;;;;0.80;0.70;;;;;;;;;;5077393;28;20514;-75
2021/05/12 00:14:10;;;;;;;2.20;0.73;;;;;;;;;;5076281;28;20408;-74
2021/05/12 00:16:36;;;;;;;1.93;1.07;;;;;;;;;;5075813;28;20781;-74
2021/05/12 00:19:05;;;;;;;1.10;0.83;;;;;;;;;;5075914;28;20521;-73
2021/05/12 00:21:58;;;;;;;1.60;1.50;;;;;;;;;;5074718;28;20969;-73
2021/05/12 00:24:19;;;;;;;0.87;0.70;;;;;;;;;;5075499;28;20389;-74
2021/05/12 00:26:45;;;;;;;1.53;0.87;;;;;;;;;;5072499;28;20475;-73
2021/05/12 00:29:12;;;;;;;1.77;0.93;;;;;;;;;;5073136;28;20969;-74
2021/05/12 00:31:42;;;;;;;3.63;2.80;;;;;;;;;;5072998;28;20396;-73
2021/05/12 00:34:08;;;;;;;5.00;1.10;;;;;;;;;;5074276;28;20446;-73
2021/05/12 00:36:34;;;;;;;2.10;1.40;;;;;;;;;;5072719;28;20388;-72
2021/05/12 00:39:07;;;;;;;1.73;1.63;;;;;;;;;;5073914;28;20438;-72
2021/05/12 00:41:40;;;;;;;1.63;1.23;;;;;;;;;;5073750;28;20420;-72
2021/05/12 00:44:07;;;;;;;1.87;1.60;;;;;;;;;;5073753;28;20869;-74
2021/05/12 00:46:33;;;;;;;1.37;1.23;;;;;;;;;;5073523;28;20396;-73
2021/05/12 00:48:59;;;;;;;1.83;1.73;;;;;;;;;;5073182;28;20466;-74
2021/05/12 00:51:27;;;;;;;1.37;1.27;;;;;;;;;;5073574;28;20384;-74
2021/05/12 00:53:53;;;;;;;1.80;1.47;;;;;;;;;;5074086;28;20392;-74
2021/05/12 00:56:19;;;;;;;1.23;0.83;;;;;;;;;;5073541;28;20393;-74
2021/05/12 00:58:45;;;;;;;1.30;0.90;;;;;;;;;;5073792;28;20546;-74
2021/05/12 01:01:13;;;;;;;23.43;16.80;;;;;;;;;;5073023;28;20460;-74
2021/05/12 01:03:42;;;;;;;2.43;1.30;;;;;;;;;;5073765;28;20416;-73
2021/05/12 01:06:20;;;;;;;1.53;0.87;;;;;;;;;;5073203;28;20913;-72
2021/05/12 01:08:46;;;;;;;1.10;0.90;;;;;;;;;;5073334;28;20426;-72
2021/05/12 01:11:12;;;;;;;2.50;1.10;;;;;;;;;;5071710;28;20392;-74
2021/05/12 01:13:40;;;;;;;2.60;1.63;;;;;;;;;;5072865;28;20395;-74
2021/05/12 01:16:06;;;;;;;1.33;1.10;;;;;;;;;;5073216;28;20387;-73
2021/05/12 01:18:32;;;;;;;1.83;0.90;;;;;;;;;;5071735;28;20409;-73
2021/05/12 01:20:59;;;;;;;7.73;1.97;;;;;;;;;;5071414;28;20420;-74
2021/05/12 01:23:30;;;;;;;2.03;1.60;;;;;;;;;;5072593;28;20423;-75
2021/05/12 01:25:56;;;;;;;1.30;0.70;;;;;;;;;;5070808;28;20934;-74
2021/05/12 01:28:24;;;;;;;3.23;1.30;;;;;;;;;;5072829;28;20388;-74
2021/05/12 01:30:54;;;;;;;0.80;0.50;;;;;;;;;;5072432;28;20388;-75
2021/05/12 01:33:20;;;;;;;1.33;1.13;;;;;;;;;;5072792;28;20476;-73
2021/05/12 01:35:51;;;;;;;2.47;1.17;;;;;;;;;;5072743;28;20505;-73
2021/05/12 01:38:17;;;;;;;1.10;0.90;;;;;;;;;;5072589;28;20425;-73
2021/05/12 01:40:43;;;;;;;0.80;0.70;;;;;;;;;;5071155;28;21107;-74
2021/05/12 01:43:10;;;;;;;0.93;0.77;;;;;;;;;;5072777;28;20401;-74
2021/05/12 01:45:36;;;;;;;2.20;1.27;;;;;;;;;;5072547;28;20451;-74
2021/05/12 01:48:09;;;;;;;3.13;1.37;;;;;;;;;;5070442;28;20442;-74
2021/05/12 01:50:35;;;;;;;2.47;1.30;;;;;;;;;;5071045;28;20394;-73
2021/05/12 01:53:01;;;;;;;0.90;0.70;;;;;;;;;;5071184;28;20894;-73
2021/05/12 01:55:27;;;;;;;2.00;0.83;;;;;;;;;;5070389;28;20419;-74
2021/05/12 01:57:56;;;;;;;2.30;0.90;;;;;;;;;;5071390;28;20407;-74
2021/05/12 02:00:33;;;;;;;1.20;1.00;;;;;;;;;;5072223;28;20428;-74
2021/05/12 02:02:59;;;;;;;0.80;0.60;;;;;;;;;;5072134;28;20395;-72
2021/05/12 02:05:28;;;;;;;1.30;0.70;;;;;;;;;;5071053;28;20385;-71
2021/05/12 02:07:56;;;;;;;1.57;1.47;;;;;;;;;;5072244;28;20400;-73
2021/05/12 02:10:22;;;;;;;1.50;1.40;;;;;;;;;;5071883;28;20380;-74
2021/05/12 02:12:48;;;;;;;2.67;0.90;;;;;;;;;;5071846;28;20525;-72
2021/05/12 02:15:14;;;;;;;1.10;0.90;;;;;;;;;;5071644;28;20394;-73
2021/05/12 02:17:40;;;;;;;5.63;2.43;;;;;;;;;;5071929;28;20433;-73
2021/05/12 02:20:07;;;;;;;1.73;1.00;;;;;;;;;;5071531;28;20394;-72
2021/05/12 02:22:34;;;;;;;1.10;1.00;;;;;;;;;;5070510;28;20541;-72
2021/05/12 02:25:02;;;;;;;1.43;1.00;;;;;;;;;;5072110;28;21005;-73
2021/05/12 02:27:28;;;;;;;2.70;1.20;;;;;;;;;;5072011;28;20433;-72
2021/05/12 02:30:00;;;;;;;2.13;0.83;;;;;;;;;;5070384;28;20461;-73
2021/05/12 02:32:26;;;;;;;0.90;0.70;;;;;;;;;;5071809;28;20491;-74
2021/05/12 02:34:52;;;;;;;1.40;1.20;;;;;;;;;;5070118;28;20823;-72
2021/05/12 02:37:20;;;;;;;1.90;1.47;;;;;;;;;;5070424;28;20577;-72
2021/05/12 02:39:46;;;;;;;1.20;1.10;;;;;;;;;;5071659;28;20394;-73
2021/05/12 02:42:12;;;;;;;1.03;0.90;;;;;;;;;;5072192;28;20997;-74
2021/05/12 02:44:41;;;;;;;2.33;2.03;;;;;;;;;;5070833;28;20418;-74
2021/05/12 02:47:07;;;;;;;1.80;1.60;;;;;;;;;;5071989;28;20914;-74
2021/05/12 02:49:33;;;;;;;1.63;1.13;;;;;;;;;;5070013;28;20446;-73
2021/05/12 02:52:01;;;;;;;1.77;1.63;;;;;;;;;;5071373;28;20974;-72
2021/05/12 02:54:29;;;;;;;5.43;1.70;;;;;;;;;;5071527;28;20839;-72
2021/05/12 02:56:55;;;;;;;2.00;1.60;;;;;;;;;;5071618;28;20400;-73
2021/05/12 02:59:21;;;;;;;3.37;1.00;;;;;;;;;;5070960;28;20428;-71
2021/05/12 03:01:47;;;;;;;1.93;1.83;;;;;;;;;;5070703;28;20496;-73
2021/05/12 03:04:14;;;;;;;1.57;1.03;;;;;;;;;;5071973;28;21007;-72
2021/05/12 03:06:42;;;;;;;3.70;1.70;;;;;;;;;;5081461;28;21360;-73
2021/05/12 03:09:11;;;;;;;1.53;1.43;;;;;;;;;;5098469;28;20380;-74
2021/05/12 03:11:37;;;;;;;2.37;2.17;;;;;;;;;;5098101;28;20365;-73
2021/05/12 03:14:04;;;;;;;5.20;2.47;;;;;;;;;;5098715;28;20395;-73
2021/05/12 03:16:32;;;;;;;2.83;1.50;;;;;;;;;;5097895;28;21227;-76
2021/05/12 03:18:58;;;;;;;1.60;1.40;;;;;;;;;;5097554;28;20396;-74
2021/05/12 03:21:25;;;;;;;2.60;2.17;;;;;;;;;;5086056;28;20519;-73
2021/05/12 03:23:51;;;;;;;2.53;1.60;;;;;;;;;;5071536;28;20389;-73
2021/05/12 03:26:17;;;;;;;2.73;1.70;;;;;;;;;;5070008;28;20448;-72
2021/05/12 03:28:44;;;;;;;1.97;1.70;;;;;;;;;;5071133;28;20785;-74
2021/05/12 03:31:13;;;;;;;1.80;1.60;;;;;;;;;;5069711;28;20423;-74
2021/05/12 03:33:40;;;;;;;3.47;1.37;;;;;;;;;;5071532;28;20870;-74
2021/05/12 03:36:06;;;;;;;3.27;2.87;;;;;;;;;;5070814;28;20530;-72
2021/05/12 03:38:32;;;;;;;3.03;2.23;;;;;;;;;;5071105;28;20969;-72
2021/05/12 03:40:59;;;;;;;5.57;2.43;;;;;;;;;;5070361;28;20521;-73
2021/05/12 03:43:25;;;;;;;2.40;1.60;;;;;;;;;;5071030;28;20851;-72
2021/05/12 03:45:51;;;;;;;2.30;1.43;;;;;;;;;;5069576;28;20404;-72
2021/05/12 03:48:17;;;;;;;4.83;1.83;;;;;;;;;;5070571;28;20433;-73
2021/05/12 03:50:43;;;;;;;6.40;2.77;;;;;;;;;;5070441;28;20470;-72
2021/05/12 03:53:11;;;;;;;4.80;1.57;;;;;;;;;;5069330;28;20379;-72
2021/05/12 03:55:39;;;;;;;3.43;3.13;;;;;;;;;;5069257;28;20476;-72
2021/05/12 03:58:05;;;;;;;6.67;2.97;;;;;;;;;;5069154;28;20452;-72
2021/05/12 04:00:31;;;;;;;2.50;1.90;;;;;;;;;;5069674;28;20483;-72
2021/05/12 04:02:57;;;;;;;2.10;1.00;;;;;;;;;;5070680;28;20498;-72
2021/05/12 04:05:23;;;;;;;2.13;1.40;;;;;;;;;;5073708;28;20401;-72
2021/05/12 04:07:50;;;;;;;3.60;2.30;;;;;;;;;;5074173;28;20405;-71
2021/05/12 04:10:20;;;;;;;5.60;2.30;;;;;;;;;;5073814;28;20858;-71
2021/05/12 04:12:47;;;;;;;1.63;1.40;;;;;;;;;;5074320;28;20383;-74
2021/05/12 04:15:13;;;;;;;1.53;1.43;;;;;;;;;;5074041;28;20413;-72
2021/05/12 04:17:41;;;;;;;2.50;1.20;;;;;;;;;;5071460;28;20416;-73
2021/05/12 04:20:11;;;;;;;1.83;1.50;;;;;;;;;;5072237;28;20385;-72
2021/05/12 04:22:38;;;;;;;1.30;1.20;;;;;;;;;;5070983;28;20528;-74
2021/05/12 04:25:05;;;;;;;2.80;1.50;;;;;;;;;;5072604;28;20954;-73
2021/05/12 04:27:31;;;;;;;5.90;1.50;;;;;;;;;;5072164;28;20571;-74
2021/05/12 04:29:57;;;;;;;6.40;2.00;;;;;;;;;;5073624;28;20943;-74
2021/05/12 04:32:23;;;;;;;2.80;2.60;;;;;;;;;;5074953;28;20761;-74
2021/05/12 04:34:49;;;;;;;1.93;1.33;;;;;;;;;;5073223;28;20422;-74
2021/05/12 04:37:15;;;;;;;1.87;1.40;;;;;;;;;;5081923;28;20424;-74
2021/05/12 04:39:41;;;;;;;3.07;1.60;;;;;;;;;;5080612;28;20407;-73
2021/05/12 04:42:08;;;;;;;2.40;1.20;;;;;;;;;;5073097;28;20454;-74
2021/05/12 04:44:36;;;;;;;4.10;1.57;;;;;;;;;;5072196;28;20875;-73
2021/05/12 04:47:05;;;;;;;2.63;1.80;;;;;;;;;;5071988;28;20417;-74
2021/05/12 04:49:31;;;;;;;1.30;1.20;;;;;;;;;;5072609;28;20991;-74
2021/05/12 04:51:59;;;;;;;6.73;3.53;;;;;;;;;;5068488;28;20479;-73
2021/05/12 04:54:25;;;;;;;3.43;2.27;;;;;;;;;;5070435;28;20417;-73
2021/05/12 04:56:51;;;;;;;1.57;1.20;;;;;;;;;;5073694;28;20392;-74
2021/05/12 04:59:17;;;;;;;1.40;0.93;;;;;;;;;;5067891;28;20417;-74
2021/05/12 05:01:43;;;;;;;2.57;1.50;;;;;;;;;;5071006;28;20504;-75
2021/05/12 05:04:09;;;;;;;1.73;1.20;;;;;;;;;;5086021;28;20431;-75
2021/05/12 05:06:35;;;;;;;4.77;1.83;;;;;;;;;;5076052;28;20365;-75
2021/05/12 05:09:02;;;;;;;2.47;2.03;;;;;;;;;;5069892;28;20441;-75
2021/05/12 05:11:28;;;;;;;4.53;2.17;;;;;;;;;;5072249;28;20416;-73
2021/05/12 05:13:54;;;;;;;6.37;3.30;;;;;;;;;;5072115;28;20405;-74
2021/05/12 05:16:20;;;;;;;5.70;2.93;;;;;;;;;;5094502;22;20487;-72
2021/05/12 05:18:48;;;;;;;2.43;1.63;;;;;;;;;;5075042;28;20422;-72
2021/05/12 05:21:15;;;;;;;4.33;2.10;;;;;;;;;;5069925;28;20446;-71
2021/05/12 05:23:41;;;;;;;5.70;2.83;;;;;;;;;;5072094;28;20375;-74
2021/05/12 05:26:07;;;;;;;2.20;2.00;;;;;;;;;;5061079;28;20409;-71
2021/05/12 05:28:33;;;;;;;1.90;1.50;;;;;;;;;;5052918;28;20450;-73
2021/05/12 05:30:59;;;;;;;3.50;2.10;;;;;;;;;;5071355;28;20491;-73
2021/05/12 05:33:25;;;;;;;4.00;2.17;;;;;;;;;;5071574;28;20805;-70
2021/05/12 05:35:51;;;;;;;5.60;3.30;;;;;;;;;;5071585;28;21037;-72
2021/05/12 05:38:17;;;;;;;1.00;0.90;;;;;;;;;;5070713;28;20438;-73
2021/05/12 05:40:42;;;;;;;2.30;2.10;;;;;;;;;;5070736;28;20427;-73
2021/05/12 05:43:09;;;;;;;4.43;1.67;;;;;;;;;;5071540;28;20372;-73
2021/05/12 05:45:35;;;;;;;5.33;2.50;;;;;;;;;;5071281;28;20392;-73
2021/05/12 05:48:01;;;;;;;2.03;1.53;;;;;;;;;;5071017;28;20389;-71
2021/05/12 05:50:27;;;;;;;1.90;1.27;;;;;;;;;;5052784;28;22036;-71
2021/05/12 05:52:54;;;;;;;5.23;2.33;;;;;;;;;;5052908;28;21026;-72
2021/05/12 05:55:20;;;;;;;5.63;1.10;;;;;;;;;;5065253;28;20399;-73
2021/05/12 05:57:47;;;;;;;3.47;2.27;;;;;;;;;;5065132;28;20503;-73
2021/05/12 06:00:13;;;;;;;2.93;1.03;;;;;;;;;;5067063;28;20426;-73
2021/05/12 06:02:39;;;;;;;3.50;1.80;;;;;;;;;;5069494;28;20712;-73
2021/05/12 06:05:06;;;;;;;9.70;2.03;;;;;;;;;;5052011;28;20815;-72
2021/05/12 06:07:32;;;;;;;2.20;1.80;;;;;;;;;;5072936;28;20420;-72
2021/05/12 06:09:57;;;;;;;2.47;1.60;;;;;;;;;;5054228;28;20403;-72
2021/05/12 06:12:24;;;;;;;2.00;1.17;;;;;;;;;;5071213;28;21162;-72
2021/05/12 06:14:50;;;;;;;1.13;0.93;;;;;;;;;;5064962;28;20387;-73
2021/05/12 06:17:16;;;;;;;3.20;2.03;;;;;;;;;;5064960;28;20429;-72
2021/05/12 06:19:45;;;;;;;2.53;1.83;;;;;;;;;;5043148;28;20389;-73
2021/05/12 06:22:11;;;;;;;1.97;1.70;;;;;;;;;;5059088;28;20465;-73
2021/05/12 06:24:38;;;;;;;2.03;1.10;;;;;;;;;;5063897;28;20772;-73
2021/05/12 06:27:05;;;;;;;2.70;2.17;;;;;;;;;;5068815;28;20399;-78
2021/05/12 06:29:31;;;;;;;1.43;1.07;;;;;;;;;;5071298;28;20885;-73
2021/05/12 06:31:57;;;;;;;6.28;3.03;;;;;;;;;;5070933;28;20530;-69
2021/05/12 06:34:23;;;;;;;2.77;1.40;;;;;;;;;;5069270;28;20169;-70
2021/05/12 06:36:49;;;;;;;2.63;2.07;;;;;;;;;;5060912;28;20420;-70
2021/05/12 06:39:15;;;;;;;5.23;2.00;;;;;;;;;;5061181;28;20534;-70
2021/05/12 06:41:41;;;;;;;2.97;2.67;;;;;;;;;;5069559;28;20435;-70
2021/05/12 06:44:07;;;;;;;1.37;1.27;;;;;;;;;;5068648;28;20386;-70
2021/05/12 06:46:33;;;;;;;4.50;2.27;;;;;;;;;;5068137;28;20407;-70
2021/05/12 06:48:59;;;;;;;2.40;1.50;;;;;;;;;;5066619;28;20435;-71
2021/05/12 06:51:25;;;;;;;2.70;1.37;;;;;;;;;;5069743;28;20400;-70
2021/05/12 06:53:51;;;;;;;5.10;1.83;;;;;;;;;;5069260;28;20417;-70
2021/05/12 06:56:17;;;;;;;2.00;1.53;;;;;;;;;;5039524;28;20833;-69
2021/05/12 06:58:43;;;;;;;2.03;1.60;;;;;;;;;;5056132;28;20432;-70
2021/05/12 07:01:09;;;;;;;1.37;0.90;;;;;;;;;;5058099;28;20808;-70
2021/05/12 07:03:35;;;;;;;1.70;1.33;;;;;;;;;;5056484;28;20417;-69
2021/05/12 07:06:02;;;;;;;2.20;0.97;;;;;;;;;;5041720;28;20387;-71
2021/05/12 07:08:28;;;;;;;1.27;1.00;;;;;;;;;;5068327;28;20422;-69
2021/05/12 07:10:54;;;;;;;3.83;1.27;;;;;;;;;;5067672;28;20399;-71
2021/05/12 07:13:20;;;;;;;3.13;1.73;;;;;;;;;;5066167;28;20472;-70
2021/05/12 07:15:46;;;;;;;2.60;1.30;;;;;;;;;;5064288;28;20414;-66
2021/05/12 07:18:12;;;;;;;1.47;1.10;;;;;;;;;;5067738;28;20420;-71
2021/05/12 07:20:38;;;;;;;2.00;1.30;;;;;;;;;;5068094;28;20416;-71
2021/05/12 07:23:04;;;;;;;2.37;1.13;;;;;;;;;;5061024;28;20396;-70
2021/05/12 07:25:30;;;;;;;1.87;1.07;;;;;;;;;;5066794;28;20811;-69
2021/05/12 07:27:56;;;;;;;3.13;2.50;;;;;;;;;;5063015;28;20531;-71
2021/05/12 07:30:22;;;;;;;1.37;1.03;;;;;;;;;;5062579;28;20484;-69
2021/05/12 07:32:49;;;;;;;2.60;1.30;;;;;;;;;;5066089;28;20396;-70
2021/05/12 07:35:15;;;;;;;4.50;1.77;;;;;;;;;;5060895;28;20712;-70
2021/05/12 07:37:41;;;;;;;1.93;1.43;;;;;;;;;;5055826;28;20433;-69
2021/05/12 07:40:07;;;;;;;2.90;2.30;;;;;;;;;;5057492;28;20394;-68
2021/05/12 07:42:35;;;;;;;2.30;1.77;;;;;;;;;;5062101;28;20422;-70
2021/05/12 07:45:01;;;;;;;3.47;1.67;;;;;;;;;;5065994;28;20467;-70
2021/05/12 07:47:27;;;;;;;2.87;2.67;;;;;;;;;;5062293;28;20404;-71
2021/05/12 07:49:53;;;;;;;3.27;1.70;;;;;;;;;;5062999;28;20859;-71
2021/05/12 07:52:19;;;;;;;1.77;1.30;;;;;;;;;;5063065;28;20491;-70
2021/05/12 07:54:48;;;;;;;4.37;2.40;;;;;;;;;;5051321;28;20429;-70
2021/05/12 07:57:14;;;;;;;1.33;0.93;;;;;;;;;;5061472;28;20464;-70
2021/05/12 07:59:40;;;;;;;1.57;1.47;;;;;;;;;;5059658;28;20754;-70
2021/05/12 08:02:06;;;;;;;1.50;1.27;;;;;;;;;;5061732;28;20813;-68
2021/05/12 08:04:32;;;;;;;1.60;1.50;;;;;;;;;;5059822;28;20382;-70
2021/05/12 08:06:59;;;;;;;2.23;2.03;;;;;;;;;;5064736;28;20388;-69
2021/05/12 08:09:25;;;;;;;2.13;1.07;;;;;;;;;;5060377;28;20476;-69
2021/05/12 08:11:51;;;;;;;2.73;1.90;;;;;;;;;;5046539;28;20409;-69
2021/05/12 08:14:20;;;;;;;5.00;2.63;;;;;;;;;;5063411;28;20405;-70
2021/05/12 08:16:46;;;;;;;3.57;1.80;;;;;;;;;;5064151;28;20459;-70
2021/05/12 08:19:15;;;;;;;2.90;2.43;;;;;;;;;;5049798;28;20475;-67
2021/05/12 08:21:41;;;;;;;2.57;2.33;;;;;;;;;;5072929;28;20510;-69
2021/05/12 08:24:07;;;;;;;7.53;2.60;;;;;;;;;;5073254;28;20930;-70
2021/05/12 08:26:33;;;;;;;1.80;1.07;;;;;;;;;;5073021;28;20401;-71
2021/05/12 08:29:01;;;;;;;3.20;1.17;;;;;;;;;;5072975;28;20407;-70
2021/05/12 08:31:27;;;;;;;4.23;2.80;;;;;;;;;;5072986;28;20401;-71
2021/05/12 08:33:53;;;;;;;1.90;1.20;;;;;;;;;;5054933;28;20414;-70
2021/05/12 08:36:19;;;;;;;7.47;6.87;;;;;;;;;;5073178;28;20412;-70
2021/05/12 08:38:46;;;;;;;1.90;1.20;;;;;;;;;;5072490;28;20774;-69
2021/05/12 08:41:16;;;;;;;2.00;1.83;;;;;;;;;;5072478;28;20423;-71
2021/05/12 08:43:42;;;;;;;2.73;1.37;;;;;;;;;;5054710;28;20476;-70
2021/05/12 08:46:09;;;;;;;1.57;0.93;;;;;;;;;;5068808;28;20406;-71
2021/05/12 08:48:36;;;;;;;2.13;1.90;;;;;;;;;;5067915;28;20408;-71
2021/05/12 08:51:02;;;;;;;5.93;1.33;;;;;;;;;;5068388;28;20417;-69
2021/05/12 08:53:29;;;;;;;2.90;1.60;;;;;;;;;;5065587;28;20807;-70
2021/05/12 08:55:55;;;;;;;1.47;1.33;;;;;;;;;;5060504;28;20420;-70
2021/05/12 08:58:21;;;;;;;1.20;1.10;;;;;;;;;;5065250;28;20505;-69
2021/05/12 09:00:47;;;;;;;5.70;2.03;;;;;;;;;;5067001;28;20538;-68
2021/05/12 09:03:13;;;;;;;1.80;1.60;;;;;;;;;;5062451;28;20524;-70
2021/05/12 09:05:39;;;;;;;2.70;2.27;;;;;;;;;;5059152;28;20421;-70
2021/05/12 09:08:05;;;;;;;5.60;2.03;;;;;;;;;;5065437;28;20471;-70
2021/05/12 09:10:31;;;;;;;1.80;1.30;;;;;;;;;;5064123;28;20900;-71
2021/05/12 09:12:59;;;;;;;2.10;1.87;;;;;;;;;;5045046;28;20412;-70
2021/05/12 09:15:27;;;;;;;4.00;2.40;;;;;;;;;;5069766;28;21035;-69
2021/05/12 09:17:53;;;;;;;1.70;1.30;;;;;;;;;;5070734;28;20419;-68
2021/05/12 09:20:19;;;;;;;2.00;1.90;;;;;;;;;;5045973;28;20392;-71
2021/05/12 09:22:49;;;;;;;1.33;1.23;;;;;;;;;;5050837;28;20531;-71
2021/05/12 09:25:18;;;;;;;1.00;0.83;;;;;;;;;;5068667;28;20392;-71
2021/05/12 09:27:49;;;;;;;2.70;1.00;;;;;;;;;;5062772;28;20434;-71
2021/05/12 09:30:21;;;;;;;1.37;1.10;;;;;;;;;;5065797;28;20864;-70
2021/05/12 09:32:47;;;;;;;2.60;1.70;;;;;;;;;;5071246;28;20929;-70
2021/05/12 09:35:14;;;;;;;3.53;2.70;;;;;;;;;;5062828;28;20384;-71
2021/05/12 09:37:42;;;;;;;2.90;1.87;;;;;;;;;;5071589;28;20437;-69
2021/05/12 09:40:09;;;;;;;2.43;1.30;;;;;;;;;;5071627;28;20539;-71
2021/05/12 09:42:40;;;;;;;2.10;1.40;;;;;;;;;;5065301;28;20458;-70
2021/05/12 09:45:19;;;;;;;0.97;0.87;;;;;;;;;;5063515;28;20385;-70
2021/05/12 09:47:46;;;;;;;2.50;2.30;;;;;;;;;;5060731;28;20918;-68
2021/05/12 09:50:26;;;;;;;2.40;1.43;;;;;;;;;;5060468;28;20771;-71
2021/05/12 09:52:53;;;;;;;1.67;1.30;;;;;;;;;;5059579;28;20977;-70
2021/05/12 09:55:19;;;;;;;1.30;1.20;;;;;;;;;;5062039;28;20407;-69
2021/05/12 09:57:58;;;;;;;1.90;1.20;;;;;;;;;;5061561;28;20425;-71
2021/05/12 10:00:29;;;;;;;2.40;0.90;;;;;;;;;;5059856;28;20406;-72
2021/05/12 10:02:56;;;;;;;3.63;1.40;;;;;;;;;;5025077;28;20454;-71
2021/05/12 10:05:22;;;;;;;4.37;2.00;;;;;;;;;;5061808;28;20398;-70
2021/05/12 10:07:52;;;;;;;1.80;1.20;;;;;;;;;;5042388;28;20787;-69
2021/05/12 10:10:37;;;;;;;2.57;1.40;;;;;;;;;;5062640;28;20850;-68
2021/05/12 10:13:03;;;;;;;1.10;1.00;;;;;;;;;;5061629;28;20403;-69
2021/05/12 10:15:29;;;;;;;0.80;0.73;;;;;;;;;;5059693;28;20403;-71
2021/05/12 10:17:55;;;;;;;2.70;1.37;;;;;;;;;;5060719;28;20419;-71
2021/05/12 10:20:21;;;;;;;2.77;1.33;;;;;;;;;;5061071;28;20407;-71
2021/05/12 10:22:47;;;;;;;1.20;0.80;;;;;;;;;;5059567;28;20542;-71
2021/05/12 10:25:13;;;;;;;1.30;0.97;;;;;;;;;;5061190;28;20433;-71
2021/05/12 10:27:39;;;;;;;2.37;1.47;;;;;;;;;;5060270;28;20449;-71
2021/05/12 10:30:05;;;;;;;1.10;0.97;;;;;;;;;;5064170;28;20419;-71
2021/05/12 10:32:36;;;;;;;0.80;0.50;;;;;;;;;;5051194;28;20374;-70
2021/05/12 10:35:06;;;;;;;0.70;0.60;;;;;;;;;;5056305;28;20460;-70
2021/05/12 10:37:37;;;;;;;141.60;126.73;;;;;;;;;;5070588;28;20559;-71
2021/05/12 10:40:06;;;;;;;276.37;260.57;;;;;;;;;;5070699;28;20394;-70
2021/05/12 10:43:13;;;;;;;501.57;381.30;;;;;;;;;;5064102;28;20442;-71
2021/05/12 10:48:33;;;;;;;1.80;1.50;;;;;;;;;;5070774;28;20391;-68
2021/05/12 10:51:05;;;;;;;1.70;0.93;;;;;;;;;;5070326;28;20416;-72
2021/05/12 10:53:32;;;;;;;12.40;2.13;;;;;;;;;;5070984;28;20481;-70
2021/05/12 10:56:01;;;;;;;1.13;0.90;;;;;;;;;;5068388;28;20725;-69
2021/05/12 10:58:37;;;;;;;0.93;0.73;;;;;;;;;;5067342;28;20418;-70
2021/05/12 11:01:10;;;;;;;0.80;0.50;;;;;;;;;;5059741;28;21027;-70
2021/05/12 11:03:52;;;;;;;1.67;0.97;;;;;;;;;;5068326;28;20406;-70
2021/05/12 11:06:21;;;;;;;0.77;0.57;;;;;;;;;;5070354;28;20386;-70
2021/05/12 11:09:07;;;;;;;2.40;1.03;;;;;;;;;;5069053;22;21203;-76
2021/05/12 11:11:53;;;;;;;1.43;0.70;;;;;;;;;;5049588;28;20415;-77
2021/05/12 11:14:27;;;;;;;0.90;0.70;;;;;;;;;;5052938;28;20434;-77
2021/05/12 11:17:08;;;;;;;2.40;2.20;;;;;;;;;;5077156;22;20997;-72
2021/05/12 11:19:36;;;;;;;4.43;0.93;;;;;;;;;;5066553;28;20504;-72
2021/05/12 11:33:21;;;;;;;1.97;0.97;;;;;;;;;;5069642;28;20417;-70
2021/05/12 11:35:51;;;;;;;3.90;2.60;;;;;;;;;;5069444;28;20401;-71
2021/05/12 11:38:18;;;;;;;2.60;0.90;;;;;;;;;;5065037;28;20475;-72
2021/05/12 11:41:02;;;;;;;3.20;1.90;;;;;;;;;;5068891;28;20778;-72
2021/05/12 11:43:32;;;;;;;1.10;0.70;;;;;;;;;;5069612;28;20449;-71
2021/05/12 11:46:05;;;;;;;1.53;1.40;;;;;;;;;;5068828;28;20425;-71
2021/05/12 11:48:35;;;;;;;1.20;0.93;;;;;;;;;;5068845;28;20410;-72
2021/05/12 11:51:03;;;;;;;2.40;1.23;;;;;;;;;;5067306;28;20460;-73
2021/05/12 11:53:29;;;;;;;2.97;1.20;;;;;;;;;;5069008;28;20444;-72
2021/05/12 11:55:59;;;;;;;1.03;0.77;;;;;;;;;;5069210;28;20388;-72
2021/05/12 11:58:25;;;;;;;2.20;1.47;;;;;;;;;;5068553;28;20478;-73
2021/05/12 12:00:53;;;;;;;1.10;1.00;;;;;;;;;;5068590;28;20975;-73
2021/05/12 12:03:24;;;;;;;1.90;1.10;;;;;;;;;;5068894;28;20402;-72
2021/05/12 12:06:03;;;;;;;1.20;1.10;;;;;;;;;;5068938;28;20780;-72
2021/05/12 12:08:29;;;;;;;1.23;0.97;;;;;;;;;;5048749;28;20517;-71
2021/05/12 12:11:13;;;;;;;1.40;1.30;;;;;;;;;;5069034;28;21222;-72
2021/05/12 12:13:39;;;;;;;1.80;1.03;;;;;;;;;;5069814;28;20906;-72
2021/05/12 12:16:05;;;;;;;1.83;1.00;;;;;;;;;;5069416;28;20406;-72
2021/05/12 12:18:35;;;;;;;2.83;2.50;;;;;;;;;;5068756;28;20452;-72
2021/05/12 12:21:02;;;;;;;2.83;1.27;;;;;;;;;;5069225;28;21158;-70
2021/05/12 12:23:33;;;;;;;1.83;0.90;;;;;;;;;;5068571;28;20422;-71
2021/05/12 12:26:08;;;;;;;1.23;0.90;;;;;;;;;;5072083;28;20418;-71
2021/05/12 12:28:34;;;;;;;0.80;0.73;;;;;;;;;;5072658;28;20981;-71
2021/05/12 12:31:00;;;;;;;1.10;1.00;;;;;;;;;;5072472;28;20492;-71
2021/05/12 12:33:26;;;;;;;5.47;1.00;;;;;;;;;;5067514;28;20418;-73
2021/05/12 12:36:02;;;;;;;1.73;1.27;;;;;;;;;;5072509;28;20760;-71
2021/05/12 12:38:30;;;;;;;1.37;0.90;;;;;;;;;;5071861;28;20428;-71
2021/05/12 12:40:56;;;;;;;3.17;1.03;;;;;;;;;;5072171;28;20432;-71
2021/05/12 12:43:22;;;;;;;3.87;1.33;;;;;;;;;;5072470;28;20462;-71
2021/05/12 12:45:48;;;;;;;7.80;2.30;;;;;;;;;;5072195;28;20769;-71
2021/05/12 12:48:14;;;;;;;2.43;1.30;;;;;;;;;;5072466;28;20460;-71
2021/05/12 12:50:41;;;;;;;4.03;1.10;;;;;;;;;;5071743;28;20463;-71
2021/05/12 12:53:10;;;;;;;12.03;1.03;;;;;;;;;;5072126;28;20410;-71
2021/05/12 12:55:36;;;;;;;2.77;1.27;;;;;;;;;;5072163;28;20646;-70
2021/05/12 12:58:10;;;;;;;4.17;1.57;;;;;;;;;;5054445;28;20903;-70
2021/05/12 13:00:36;;;;;;;1.10;0.90;;;;;;;;;;5071158;28;20402;-71
2021/05/12 13:03:10;;;;;;;2.20;1.17;;;;;;;;;;5071872;28;20525;-71
2021/05/12 13:05:36;;;;;;;0.80;0.60;;;;;;;;;;5071988;28;20419;-71
2021/05/12 13:08:12;;;;;;;1.20;1.10;;;;;;;;;;5072213;28;20739;-71
2021/05/12 13:10:39;;;;;;;1.20;0.93;;;;;;;;;;5071332;28;20924;-71
2021/05/12 13:13:05;;;;;;;1.10;0.90;;;;;;;;;;5072089;28;20451;-71
2021/05/12 13:15:33;;;;;;;0.90;0.80;;;;;;;;;;5071865;28;20398;-71
2021/05/12 13:18:00;;;;;;;2.30;2.10;;;;;;;;;;5071680;28;20474;-70
2021/05/12 13:20:28;;;;;;;1.20;1.10;;;;;;;;;;5071429;28;20771;-71
2021/05/12 13:23:00;;;;;;;3.80;1.00;;;;;;;;;;5071767;28;20486;-71
2021/05/12 13:25:26;;;;;;;0.73;0.60;;;;;;;;;;5071613;28;20421;-71
2021/05/12 13:27:52;;;;;;;1.67;1.07;;;;;;;;;;5071380;28;20389;-71
2021/05/12 13:30:18;;;;;;;1.73;1.33;;;;;;;;;;5070939;28;20396;-71
2021/05/12 13:32:44;;;;;;;2.10;1.87;;;;;;;;;;5071366;28;20747;-71
2021/05/12 13:35:10;;;;;;;46.20;42.07;;;;;;;;;;5070629;28;20501;-71
2021/05/12 13:37:39;;;;;;;1.10;0.80;;;;;;;;;;5070564;28;20975;-71
2021/05/12 13:40:05;;;;;;;1.10;1.03;;;;;;;;;;5071211;28;20432;-71
2021/05/12 13:42:31;;;;;;;30.33;27.50;;;;;;;;;;5070743;28;20450;-71
2021/05/12 13:44:57;;;;;;;1.83;1.67;;;;;;;;;;5071527;28;20915;-71
2021/05/12 13:47:23;;;;;;;33.33;29.83;;;;;;;;;;5070971;28;20825;-72
2021/05/12 13:49:49;;;;;;;420.57;390.50;;;;;;;;;;5070855;28;20426;-71
2021/05/12 13:52:23;;;;;;;2.90;0.70;;;;;;;;;;5071228;28;20437;-70
2021/05/12 13:54:55;;;;;;;2.20;1.93;;;;;;;;;;5070470;28;20410;-71
2021/05/12 13:57:31;;;;;;;98.50;84.10;;;;;;;;;;5071558;28;20744;-70
2021/05/12 14:00:19;;;;;;;8.03;7.30;;;;;;;;;;5070297;28;20509;-70
2021/05/12 14:02:55;;;;;;;368.40;300.70;;;;;;;;;;5070132;28;20813;-70
2021/05/12 14:05:21;;;;;;;226.60;208.83;;;;;;;;;;5070747;28;20957;-72
2021/05/12 14:07:47;;;;;;;1.57;1.47;;;;;;;;;;5070863;28;20430;-71
2021/05/12 14:10:16;;;;;;;18.67;17.83;;;;;;;;;;5070671;28;20444;-71
2021/05/12 14:12:48;;;;;;;0.80;0.70;;;;;;;;;;5067815;28;20898;-72
2021/05/12 14:17:59;;;;;;;393.67;338.23;;;;;;;;;;5064701;28;20415;-72
2021/05/12 14:20:25;;;;;;;488.43;327.73;;;;;;;;;;5050609;28;21074;-72
2021/05/12 14:22:51;;;;;;;506.40;275.57;;;;;;;;;;5053230;28;20457;-71
2021/05/12 14:25:17;;;;;;;14.53;6.13;;;;;;;;;;5070158;28;20452;-72
2021/05/12 14:27:45;;;;;;;357.20;318.73;;;;;;;;;;5068944;28;20425;-71
2021/05/12 14:30:12;;;;;;;480.17;229.70;;;;;;;;;;5053262;28;20427;-73
2021/05/12 14:32:38;;;;;;;487.77;246.70;;;;;;;;;;5071242;28;20410;-70
2021/05/12 14:35:04;;;;;;;483.73;229.13;;;;;;;;;;5071175;28;21905;-70
2021/05/12 14:37:30;;;;;;;488.10;234.87;;;;;;;;;;5051448;28;20414;-71
2021/05/12 14:39:56;;;;;;;476.70;225.17;;;;;;;;;;5051242;28;20423;-70
2021/05/12 14:42:23;;;;;;;24.87;6.80;;;;;;;;;;5036834;28;20449;-69
2021/05/12 14:44:49;;;;;;;1.43;1.30;;;;;;;;;;5069793;28;20430;-72
2021/05/12 14:47:15;;;;;;;360.53;189.90;;;;;;;;;;5069192;28;20398;-70
2021/05/12 14:49:42;;;;;;;133.93;63.47;;;;;;;;;;5070542;28;20421;-70
2021/05/12 14:52:18;;;;;;;6.43;2.10;;;;;;;;;;5066573;28;20376;-74
2021/05/12 14:54:51;;;;;;;1.13;0.97;;;;;;;;;;5071070;28;20500;-69
2021/05/12 15:07:23;;;;;;;0.80;0.70;;;;;;;;;;5069492;28;20484;-70
2021/05/12 15:09:49;;;;;;;1.93;1.23;;;;;;;;;;5069791;28;20992;-69
2021/05/12 15:12:15;;;;;;;2.40;1.30;;;;;;;;;;5070862;28;20416;-70